Time;durP1;ratioP1;P1;durP2;ratioP2;P2;SDS_P1;SDS_P2;PMS_P1;PMS_P2;Temp;Humidity;BMP_temperature;BMP_pressure;BME280_temperature;BME280_humidity;BME280_pressure;Samples;Min_cycle;Max_cycle;Signal;HPM_P1;HPM_P2
2021/04/21 06:14:11;;;;;;;12.25;6.22;;;9.90;99.90;;;;;;4952752;23;20126;-81
2021/04/21 06:16:37;;;;;;;8.68;4.90;;;10.40;99.90;;;;;;4960288;28;20223;-83
2021/04/21 06:19:06;;;;;;;5.88;4.97;;;11.00;99.90;;;;;;4961782;28;20054;-82
2021/04/21 06:21:38;;;;;;;8.60;4.75;;;11.90;99.90;;;;;;4972843;28;20046;-83
2021/04/21 06:24:19;;;;;;;12.15;5.07;;;12.20;99.90;;;;;;4981337;28;20515;-83
2021/04/21 06:26:46;;;;;;;172.52;97.60;;;13.00;99.90;;;;;;4981209;28;20429;-83
2021/04/21 06:29:12;;;;;;;30.42;11.68;;;13.20;99.90;;;;;;4981100;28;20042;-83
2021/04/21 06:31:43;;;;;;;23.23;6.15;;;13.10;99.90;;;;;;4982033;28;20050;-83
2021/04/21 06:34:12;;;;;;;17.25;5.75;;;13.40;99.90;;;;;;4983262;28;20058;-81
2021/04/21 06:36:47;;;;;;;21.55;7.18;;;14.20;99.90;;;;;;4983143;28;20112;-80
2021/04/21 06:39:17;;;;;;;8.77;4.97;;;14.70;99.90;;;;;;4982432;28;20054;-82
2021/04/21 06:41:44;;;;;;;5.28;4.22;;;15.00;99.90;;;;;;4999775;28;20042;-81
2021/04/21 06:44:13;;;;;;;8.05;4.10;;;16.00;99.90;;;;;;4983742;28;20121;-83
2021/04/21 06:46:41;;;;;;;14.13;5.05;;;16.20;99.90;;;;;;4983517;28;20425;-83
2021/04/21 06:49:07;;;;;;;15.25;5.25;;;16.80;99.90;;;;;;5001230;28;20047;-81
2021/04/21 06:51:36;;;;;;;4.75;3.55;;;17.00;99.90;;;;;;5001778;28;20050;-82
2021/04/21 06:54:05;;;;;;;7.47;3.97;;;17.20;98.00;;;;;;5005159;28;20076;-80
2021/04/21 06:56:34;;;;;;;4.30;3.83;;;17.50;97.30;;;;;;5003885;28;20046;-83
2021/04/21 06:59:02;;;;;;;14.45;4.05;;;18.10;95.70;;;;;;4983465;28;20046;-83
2021/04/21 07:01:30;;;;;;;8.30;4.13;;;18.60;92.60;;;;;;4982829;28;20047;-83
2021/04/21 07:04:14;;;;;;;4.28;3.88;;;19.00;91.20;;;;;;4987623;28;20085;-83
2021/04/21 07:06:46;;;;;;;3.78;3.47;;;20.00;86.10;;;;;;4983132;28;20042;-83
2021/04/21 07:09:13;;;;;;;3.78;3.38;;;20.20;85.80;;;;;;5001280;28;20047;-81
2021/04/21 07:11:41;;;;;;;11.30;4.10;;;19.80;82.60;;;;;;4984091;28;20552;-81
2021/04/21 07:14:10;;;;;;;17.48;4.95;;;21.00;80.10;;;;;;4977682;28;20083;-81
2021/04/21 07:16:39;;;;;;;12.63;4.10;;;20.00;80.80;;;;;;4977987;28;20054;-81
2021/04/21 07:19:12;;;;;;;18.42;4.88;;;20.20;79.40;;;;;;4980240;28;20072;-80
2021/04/21 07:21:40;;;;;;;13.57;4.20;;;20.60;75.70;;;;;;4980397;28;20533;-81
2021/04/21 07:24:11;;;;;;;19.55;4.68;;;19.70;79.00;;;;;;4983562;28;20112;-79
2021/04/21 07:26:40;;;;;;;14.70;4.35;;;19.60;83.00;;;;;;4998832;28;20050;-81
2021/04/21 07:29:15;;;;;;;10.27;4.03;;;20.20;80.80;;;;;;4979159;28;20050;-80
2021/04/21 07:31:41;;;;;;;11.52;4.40;;;20.30;82.00;;;;;;4994774;28;20089;-80
2021/04/21 07:34:29;;;;;;;12.32;3.53;;;21.40;76.40;;;;;;4979737;28;20425;-81
2021/04/21 07:36:57;;;;;;;9.15;3.72;;;21.50;73.80;;;;;;4977276;28;20129;-81
2021/04/21 07:39:36;;;;;;;12.98;3.65;;;20.80;75.70;;;;;;4977042;28;20429;-81
2021/04/21 07:42:04;;;;;;;10.77;3.80;;;20.90;77.50;;;;;;4994558;28;20109;-80
2021/04/21 07:44:37;;;;;;;9.52;4.00;;;21.60;75.20;;;;;;4977176;28;20074;-81
2021/04/21 07:47:05;;;;;;;12.48;3.60;;;23.00;68.80;;;;;;4993762;28;20055;-81
2021/04/21 07:49:37;;;;;;;6.57;3.47;;;21.80;74.00;;;;;;4994806;28;20069;-82
2021/04/21 07:52:05;;;;;;;12.35;3.60;;;23.10;68.00;;;;;;4974327;28;20528;-81
2021/04/21 07:54:33;;;;;;;13.38;4.07;;;23.60;65.50;;;;;;4994133;28;20042;-81
2021/04/21 07:57:04;;;;;;;9.75;4.15;;;23.90;63.80;;;;;;4976900;28;20050;-81
2021/04/21 07:59:33;;;;;;;10.38;3.55;;;24.40;60.60;;;;;;4994113;28;20085;-82
2021/04/21 08:02:14;;;;;;;13.93;3.78;;;24.00;61.50;;;;;;4996104;28;20050;-82
2021/04/21 08:04:55;;;;;;;15.23;4.00;;;24.30;61.90;;;;;;4997582;28;20145;-82
2021/04/21 08:07:36;;;;;;;12.07;3.47;;;24.90;60.80;;;;;;5006259;28;20082;-82
2021/04/21 08:10:09;;;;;;;4.82;2.65;;;25.10;62.10;;;;;;5007122;28;20050;-83
2021/04/21 08:12:37;;;;;;;4.82;2.50;;;24.70;62.10;;;;;;4990161;28;20050;-82
2021/04/21 08:15:10;;;;;;;4.45;2.80;;;23.40;64.70;;;;;;4991070;28;20055;-82
2021/04/21 08:17:59;;;;;;;6.20;2.80;;;24.20;66.40;;;;;;4966136;28;20046;-82
2021/04/21 08:20:32;;;;;;;8.75;3.22;;;25.40;56.50;;;;;;4984111;28;20051;-82
2021/04/21 08:23:08;;;;;;;7.93;3.38;;;27.20;50.80;;;;;;4966889;28;20106;-82
2021/04/21 08:25:35;;;;;;;16.52;3.42;;;27.80;47.80;;;;;;4966179;28;20494;-83
2021/04/21 08:28:02;;;;;;;6.35;3.10;;;28.20;46.60;;;;;;4966134;28;20081;-82
2021/04/21 08:30:30;;;;;;;5.45;3.60;;;26.50;47.50;;;;;;4965448;28;20082;-83
2021/04/21 08:32:57;;;;;;;5.78;3.40;;;25.20;49.80;;;;;;4965735;28;20074;-82
2021/04/21 08:35:23;;;;;;;9.13;3.88;;;24.70;50.80;;;;;;4966047;28;20051;-81
2021/04/21 08:37:50;;;;;;;6.93;3.97;;;23.70;53.50;;;;;;4965433;28;20145;-83
2021/04/21 08:40:19;;;;;;;4.65;3.50;;;23.40;53.60;;;;;;4965134;28;20557;-83
2021/04/21 08:42:52;;;;;;;5.18;3.50;;;22.60;55.10;;;;;;4963965;28;20049;-82
2021/04/21 08:45:19;;;;;;;4.82;3.28;;;23.60;52.80;;;;;;4963047;28;20047;-82
2021/04/21 08:47:45;;;;;;;6.65;3.28;;;26.40;52.00;;;;;;4983156;28;20054;-81
2021/04/21 08:50:12;;;;;;;10.20;3.80;;;27.60;45.00;;;;;;4985575;28;20051;-83
2021/04/21 08:52:51;;;;;;;5.05;3.40;;;28.30;43.30;;;;;;4966602;28;20074;-82
2021/04/21 08:55:18;;;;;;;8.50;3.75;;;28.70;44.30;;;;;;4967924;28;20051;-83
2021/04/21 08:57:46;;;;;;;5.22;3.30;;;28.50;42.20;;;;;;4966777;28;20078;-83
2021/04/21 09:00:17;;;;;;;5.22;3.72;;;30.00;39.50;;;;;;4966987;28;20054;-83
2021/04/21 09:02:44;;;;;;;7.75;3.72;;;31.20;39.30;;;;;;4966625;28;20046;-81
2021/04/21 09:05:12;;;;;;;6.28;4.07;;;30.40;37.50;;;;;;4967342;28;20053;-82
2021/04/21 09:07:39;;;;;;;9.07;4.22;;;28.90;36.70;;;;;;4965916;28;20070;-82
2021/04/21 09:10:10;;;;;;;5.65;4.22;;;28.60;39.80;;;;;;4983311;28;20082;-83
2021/04/21 09:12:36;;;;;;;19.42;4.82;;;29.10;40.40;;;;;;4967119;28;20054;-82
2021/04/21 09:15:05;;;;;;;10.52;4.53;;;28.20;38.90;;;;;;4997267;28;20085;-83
2021/04/21 09:17:31;;;;;;;7.10;4.13;;;28.00;39.90;;;;;;4987662;28;20051;-82
2021/04/21 09:20:01;;;;;;;5.53;3.90;;;28.60;39.10;;;;;;5007171;28;20046;-82
2021/04/21 09:22:28;;;;;;;4.47;4.07;;;28.20;38.20;;;;;;4993136;28;20133;-79
2021/04/21 09:25:00;;;;;;;9.30;4.28;;;27.20;39.10;;;;;;5007751;28;20066;-77
2021/04/21 09:27:34;;;;;;;5.63;4.47;;;26.80;40.40;;;;;;4986766;28;20046;-83
2021/04/21 09:30:15;;;;;;;12.75;4.85;;;27.50;38.80;;;;;;5007025;28;20058;-81
2021/04/21 09:32:44;;;;;;;9.48;3.70;;;27.60;39.60;;;;;;4978614;28;20548;-83
2021/04/21 09:35:16;;;;;;;15.80;4.57;;;28.10;39.60;;;;;;4978626;28;20050;-81
2021/04/21 09:37:42;;;;;;;7.80;4.22;;;28.60;38.60;;;;;;4978820;28;20170;-81
2021/04/21 09:40:10;;;;;;;8.13;5.05;;;28.60;37.50;;;;;;4978531;28;20073;-81
2021/04/21 09:42:39;;;;;;;8.88;3.95;;;25.70;38.40;;;;;;4996346;28;20061;-82
2021/04/21 09:45:09;;;;;;;8.82;4.03;;;26.10;42.80;;;;;;4978301;28;20524;-81
2021/04/21 09:47:36;;;;;;;10.13;3.80;;;27.70;38.90;;;;;;4978487;28;20137;-81
2021/04/21 09:50:03;;;;;;;7.95;4.07;;;28.40;39.90;;;;;;4978427;28;20050;-82
2021/04/21 09:52:30;;;;;;;7.25;4.53;;;28.90;37.60;;;;;;4978325;28;20120;-83
2021/04/21 09:54:58;;;;;;;10.27;4.13;;;28.10;37.50;;;;;;4977771;28;20531;-81
2021/04/21 09:57:31;;;;;;;8.63;4.03;;;28.20;38.60;;;;;;4999680;28;20085;-81
2021/04/21 10:00:08;;;;;;;8.02;3.33;;;27.90;38.60;;;;;;4982351;28;20390;-82
2021/04/21 10:02:37;;;;;;;6.00;3.67;;;28.00;38.70;;;;;;4982567;28;20419;-82
2021/04/21 10:05:29;;;;;;;10.57;4.40;;;26.70;39.20;;;;;;5000332;28;20097;-83
2021/04/21 10:08:21;;;;;;;8.45;4.20;;;26.30;39.50;;;;;;4981584;28;20066;-82
2021/04/21 10:11:02;;;;;;;7.25;4.55;;;28.30;39.90;;;;;;4984022;28;20050;-83
2021/04/21 10:13:42;;;;;;;16.45;4.93;;;26.30;39.90;;;;;;4984134;28;20046;-83
2021/04/21 10:16:10;;;;;;;9.23;4.55;;;26.70;40.40;;;;;;4966858;28;20055;-82
2021/04/21 10:18:38;;;;;;;8.88;4.07;;;23.40;43.50;;;;;;4965040;28;20066;-83
2021/04/21 10:21:11;;;;;;;13.15;4.72;;;23.30;46.60;;;;;;4965518;28;20399;-84
2021/04/21 10:23:38;;;;;;;9.38;4.65;;;23.80;45.70;;;;;;4981894;28;20070;-83
2021/04/21 10:26:09;;;;;;;5.53;4.30;;;24.80;44.10;;;;;;4965672;28;20051;-84
2021/04/21 10:28:37;;;;;;;5.07;4.32;;;24.70;43.80;;;;;;4965750;28;20094;-83
2021/04/21 10:31:06;;;;;;;6.93;4.38;;;25.60;43.50;;;;;;4968201;28;20082;-83
2021/04/21 10:33:34;;;;;;;6.18;4.50;;;25.10;42.70;;;;;;4967565;28;20133;-82
2021/04/21 10:36:01;;;;;;;7.90;4.45;;;24.50;42.70;;;;;;4968377;28;20055;-84
2021/04/21 10:38:28;;;;;;;7.30;4.60;;;24.90;45.60;;;;;;4967001;28;20090;-84
2021/04/21 10:41:21;;;;;;;10.07;4.40;;;24.90;43.60;;;;;;4987155;28;20051;-85
2021/04/21 10:43:48;;;;;;;6.32;4.60;;;24.70;43.60;;;;;;4971344;28;20046;-83
2021/04/21 10:46:15;;;;;;;6.85;4.38;;;25.10;44.40;;;;;;4970914;28;20058;-85
2021/04/21 10:48:44;;;;;;;8.30;3.92;;;25.80;43.60;;;;;;4968647;28;20517;-84
2021/04/21 10:51:32;;;;;;;11.77;5.00;;;25.20;42.60;;;;;;4965114;28;20054;-83
2021/04/21 10:54:04;;;;;;;6.90;4.10;;;26.40;43.00;;;;;;4966741;28;20051;-83
2021/04/21 10:56:31;;;;;;;5.03;3.72;;;25.80;41.10;;;;;;4968973;28;20051;-84
2021/04/21 10:59:00;;;;;;;10.85;4.85;;;27.60;41.60;;;;;;4967858;28;20082;-83
2021/04/21 11:01:31;;;;;;;6.55;4.47;;;27.60;42.00;;;;;;4970502;28;20109;-84
2021/04/21 11:03:59;;;;;;;11.63;4.30;;;28.20;40.70;;;;;;4969552;28;20142;-83
2021/04/21 11:06:45;;;;;;;6.30;4.07;;;28.50;41.10;;;;;;4970347;28;20085;-83
2021/04/21 11:09:13;;;;;;;8.93;4.15;;;28.20;37.80;;;;;;4966757;28;20093;-84
2021/04/21 11:11:47;;;;;;;8.18;3.63;;;28.00;39.30;;;;;;4964363;28;20051;-83
2021/04/21 11:14:15;;;;;;;6.80;4.30;;;27.90;39.50;;;;;;4966748;28;20084;-83
2021/04/21 11:16:43;;;;;;;7.43;4.18;;;26.20;41.30;;;;;;4984032;28;20051;-84
2021/04/21 11:19:18;;;;;;;6.38;4.65;;;25.00;43.40;;;;;;4985360;28;20049;-83
2021/04/21 11:22:08;;;;;;;5.22;4.50;;;24.50;43.70;;;;;;4986468;28;20476;-84
2021/04/21 11:24:37;;;;;;;6.60;3.95;;;25.00;44.90;;;;;;4984401;28;20081;-85
2021/04/21 11:27:11;;;;;;;10.45;4.82;;;26.40;42.40;;;;;;4986065;28;20062;-85
2021/04/21 11:29:38;;;;;;;6.90;3.70;;;25.90;41.50;;;;;;4988290;28;20054;-84
2021/04/21 11:32:04;;;;;;;4.43;4.03;;;26.50;41.80;;;;;;4986590;28;20046;-84
2021/04/21 11:34:32;;;;;;;19.02;5.57;;;25.50;42.90;;;;;;4986954;28;20125;-84
2021/04/21 11:37:16;;;;;;;11.57;4.65;;;25.70;42.60;;;;;;4988743;28;20058;-84
2021/04/21 11:39:49;;;;;;;6.22;4.13;;;26.20;43.20;;;;;;4991502;28;20050;-84
2021/04/21 11:42:41;;;;;;;7.05;4.00;;;25.60;41.40;;;;;;5005247;28;20413;-84
2021/04/21 11:45:29;;;;;;;6.28;4.00;;;24.00;44.40;;;;;;4981196;28;20050;-83
2021/04/21 11:48:05;;;;;;;6.38;4.20;;;23.30;44.90;;;;;;4986788;28;20058;-84
2021/04/21 11:50:36;;;;;;;13.95;4.60;;;23.00;45.50;;;;;;4986425;28;20497;-84
2021/04/21 11:53:13;;;;;;;6.70;3.95;;;22.70;48.00;;;;;;5004065;28;20057;-83
2021/04/21 11:55:56;;;;;;;6.25;4.20;;;24.20;46.30;;;;;;5002477;28;20073;-83
2021/04/21 11:58:30;;;;;;;13.43;4.00;;;24.50;42.80;;;;;;4984987;28;20097;-82
2021/04/21 12:01:04;;;;;;;9.57;3.55;;;23.90;44.70;;;;;;4984753;28;20452;-82
2021/04/21 12:03:36;;;;;;;9.80;3.90;;;22.90;43.90;;;;;;4984865;28;20050;-82
2021/04/21 12:06:05;;;;;;;10.00;3.70;;;21.60;45.40;;;;;;4985834;28;20070;-83
2021/04/21 12:08:37;;;;;;;9.23;3.58;;;22.10;46.00;;;;;;4988790;28;20110;-84
2021/04/21 12:11:05;;;;;;;4.45;3.92;;;23.10;44.70;;;;;;4987698;28;20421;-85
2021/04/21 12:13:47;;;;;;;4.55;3.60;;;23.70;43.90;;;;;;4986590;28;20046;-83
2021/04/21 12:16:19;;;;;;;5.22;3.60;;;23.30;43.50;;;;;;4987398;28;20061;-84
2021/04/21 12:18:48;;;;;;;8.27;4.07;;;22.60;44.60;;;;;;4986014;28;20081;-83
2021/04/21 12:21:16;;;;;;;5.43;3.65;;;22.30;44.00;;;;;;5002628;28;20065;-83
2021/04/21 12:24:01;;;;;;;11.93;3.83;;;21.80;45.80;;;;;;4986603;28;20050;-83
2021/04/21 12:26:31;;;;;;;5.35;4.00;;;21.20;46.60;;;;;;4986592;28;20046;-84
2021/04/21 12:29:08;;;;;;;28.08;8.30;;;21.10;46.60;;;;;;4986082;28;20081;-84
2021/04/21 12:31:35;;;;;;;6.95;3.50;;;21.50;46.50;;;;;;4987473;28;20076;-83
2021/04/21 12:34:04;;;;;;;3.50;3.03;;;21.50;45.30;;;;;;5006215;28;20046;-84
2021/04/21 12:36:36;;;;;;;12.68;3.75;;;21.80;44.30;;;;;;4986924;28;20124;-84
2021/04/21 12:39:05;;;;;;;8.93;4.32;;;22.00;44.60;;;;;;4987295;28;20051;-84
2021/04/21 12:41:32;;;;;;;6.00;2.95;;;21.40;44.60;;;;;;4986055;28;20058;-83
2021/04/21 12:44:22;;;;;;;13.23;3.05;;;21.70;42.50;;;;;;4984590;28;20082;-83
2021/04/21 12:46:51;;;;;;;9.85;3.30;;;21.90;42.30;;;;;;4984540;28;20050;-83
2021/04/21 12:49:39;;;;;;;12.73;3.03;;;22.00;41.70;;;;;;4984218;28;20528;-82
2021/04/21 12:52:11;;;;;;;57.22;7.05;;;22.10;43.30;;;;;;4984885;28;20133;-83
2021/04/21 12:54:41;;;;;;;13.73;3.63;;;22.30;42.10;;;;;;4983764;28;20417;-83
2021/04/21 12:57:09;;;;;;;5.80;2.83;;;21.70;42.40;;;;;;4984748;28;20046;-83
2021/04/21 12:59:44;;;;;;;7.32;3.03;;;21.80;43.00;;;;;;5002491;28;20042;-84
2021/04/21 13:02:13;;;;;;;10.02;2.85;;;21.40;42.60;;;;;;4984990;28;20081;-83
2021/04/21 13:04:40;;;;;;;9.60;3.63;;;21.30;43.60;;;;;;4983414;28;20073;-83
2021/04/21 13:07:22;;;;;;;5.65;2.92;;;21.40;44.70;;;;;;4980120;28;20077;-82
2021/04/21 13:09:50;;;;;;;6.45;3.28;;;21.30;43.30;;;;;;4980129;28;20042;-83
2021/04/21 13:12:21;;;;;;;2.95;2.25;;;21.10;43.10;;;;;;4979902;28;20046;-83
2021/04/21 13:14:51;;;;;;;5.70;2.97;;;20.30;43.20;;;;;;4980626;28;20061;-82
2021/04/21 13:17:18;;;;;;;12.15;3.38;;;19.70;44.40;;;;;;4980589;28;20046;-83
2021/04/21 13:19:54;;;;;;;6.07;2.83;;;19.70;45.00;;;;;;4981189;28;20081;-83
2021/04/21 13:22:29;;;;;;;6.00;2.95;;;20.10;46.40;;;;;;4981956;28;20073;-82
2021/04/21 13:24:57;;;;;;;16.10;4.28;;;20.60;46.80;;;;;;4980206;28;20081;-85
2021/04/21 13:27:32;;;;;;;5.78;3.33;;;20.50;45.00;;;;;;4979080;28;20133;-81
2021/04/21 13:30:12;;;;;;;6.45;3.63;;;20.30;45.60;;;;;;4978931;28;20081;-83
2021/04/21 13:32:43;;;;;;;7.32;3.65;;;20.60;46.10;;;;;;4979280;28;20057;-83
2021/04/21 13:35:11;;;;;;;6.30;3.47;;;20.20;46.10;;;;;;4978724;28;20058;-82
2021/04/21 13:37:38;;;;;;;5.72;3.20;;;19.90;46.60;;;;;;4982539;28;20136;-85
2021/04/21 13:40:11;;;;;;;21.95;3.60;;;19.70;47.30;;;;;;4984222;28;20058;-84
2021/04/21 13:42:42;;;;;;;7.57;3.03;;;19.60;46.80;;;;;;5006323;28;20054;-85
2021/04/21 13:45:11;;;;;;;9.05;3.30;;;19.30;46.90;;;;;;4988620;28;20061;-83
2021/04/21 13:47:42;;;;;;;4.28;3.28;;;18.90;48.50;;;;;;4984803;28;20100;-84
2021/04/21 13:50:09;;;;;;;7.47;3.20;;;18.90;47.80;;;;;;5005651;28;20046;-83
2021/04/21 13:52:35;;;;;;;11.38;3.58;;;18.80;49.30;;;;;;5008005;28;20046;-83
2021/04/21 13:55:06;;;;;;;7.10;3.17;;;19.20;49.80;;;;;;4983273;28;20049;-83
2021/04/21 13:57:33;;;;;;;10.60;3.28;;;19.30;47.60;;;;;;4981781;28;20161;-84
2021/04/21 13:59:59;;;;;;;4.70;3.20;;;19.60;47.60;;;;;;4980352;28;20469;-83
2021/04/21 14:02:26;;;;;;;5.30;3.45;;;19.80;47.90;;;;;;4981885;28;20058;-84
2021/04/21 14:04:53;;;;;;;6.88;2.80;;;19.80;49.70;;;;;;4997949;28;20455;-83
2021/04/21 14:07:20;;;;;;;9.45;3.65;;;19.70;48.80;;;;;;4980878;28;20050;-84
2021/04/21 14:09:46;;;;;;;5.70;3.08;;;19.40;47.70;;;;;;4997391;28;20069;-83
2021/04/21 14:12:13;;;;;;;4.07;3.40;;;19.00;48.70;;;;;;4981001;28;20100;-83
2021/04/21 14:14:39;;;;;;;7.32;3.13;;;18.70;47.90;;;;;;4982676;28;20054;-84
2021/04/21 14:17:05;;;;;;;8.05;2.90;;;18.30;49.50;;;;;;4980543;28;20157;-84
2021/04/21 14:19:32;;;;;;;6.55;3.35;;;18.30;49.90;;;;;;4980995;28;20056;-83
2021/04/21 14:22:00;;;;;;;18.02;4.25;;;18.20;49.10;;;;;;4982181;28;20077;-80
2021/04/21 14:24:26;;;;;;;10.88;3.70;;;18.40;48.70;;;;;;4980498;28;20081;-84
2021/04/21 14:26:53;;;;;;;5.60;2.72;;;18.20;49.60;;;;;;4982154;28;20410;-83
2021/04/21 14:29:19;;;;;;;4.18;2.60;;;18.30;49.70;;;;;;4979781;28;20520;-83
2021/04/21 14:31:48;;;;;;;5.60;2.75;;;18.60;51.10;;;;;;4980180;28;20042;-83
2021/04/21 14:34:14;;;;;;;4.97;2.53;;;19.00;49.90;;;;;;4978085;28;20053;-82
2021/04/21 14:36:42;;;;;;;5.40;2.78;;;19.60;50.70;;;;;;4978888;28;20097;-83
2021/04/21 14:39:09;;;;;;;4.25;2.90;;;20.20;47.80;;;;;;4980040;28;20501;-82
2021/04/21 14:41:37;;;;;;;6.93;2.90;;;20.70;46.70;;;;;;4978180;28;20074;-82
2021/04/21 14:44:05;;;;;;;21.17;3.65;;;20.70;45.30;;;;;;4978768;28;20486;-83
2021/04/21 14:46:32;;;;;;;13.57;3.35;;;20.40;45.30;;;;;;4978402;28;20138;-83
2021/04/21 14:48:58;;;;;;;5.30;2.72;;;20.10;45.90;;;;;;4980097;28;20143;-83
2021/04/21 14:51:25;;;;;;;6.70;2.50;;;19.90;45.60;;;;;;4978798;28;20100;-84
2021/04/21 14:53:51;;;;;;;4.97;2.35;;;20.10;45.60;;;;;;4978584;28;20082;-83
2021/04/21 14:56:18;;;;;;;7.72;2.70;;;19.90;45.50;;;;;;4979725;28;20136;-83
2021/04/21 14:58:45;;;;;;;13.38;2.92;;;19.50;45.40;;;;;;4994546;28;20101;-83
2021/04/21 15:01:14;;;;;;;4.85;2.85;;;19.20;45.90;;;;;;4995041;28;20050;-83
2021/04/21 15:03:41;;;;;;;6.97;3.60;;;18.80;45.80;;;;;;4994777;28;20394;-81
2021/04/21 15:06:10;;;;;;;22.48;4.43;;;18.60;46.80;;;;;;4978043;28;20046;-81
2021/04/21 15:08:50;;;;;;;8.65;3.70;;;18.30;48.80;;;;;;4978738;28;20436;-81
2021/04/21 15:11:20;;;;;;;6.03;3.50;;;18.20;49.20;;;;;;4980219;28;20050;-80
2021/04/21 15:13:47;;;;;;;9.07;3.42;;;18.20;49.60;;;;;;4983771;28;20124;-83
2021/04/21 15:16:15;;;;;;;7.75;3.55;;;18.00;50.30;;;;;;4983782;28;20100;-81
2021/04/21 15:18:42;;;;;;;28.50;4.40;;;17.90;49.00;;;;;;5001394;28;20050;-82
2021/04/21 15:21:10;;;;;;;3.58;3.00;;;18.00;50.20;;;;;;4983436;28;20054;-81
2021/04/21 15:23:38;;;;;;;8.60;3.22;;;18.20;51.30;;;;;;4983965;28;20141;-82
2021/04/21 15:26:08;;;;;;;5.63;2.80;;;18.30;49.80;;;;;;4983280;28;20132;-82
2021/04/21 15:28:35;;;;;;;12.23;4.10;;;18.10;48.40;;;;;;4984772;28;20089;-82
2021/04/21 15:31:02;;;;;;;6.68;3.35;;;17.90;49.40;;;;;;5003933;28;20114;-82
2021/04/21 15:33:28;;;;;;;7.57;3.40;;;17.60;50.50;;;;;;5004396;28;20046;-83
2021/04/21 15:35:55;;;;;;;5.80;3.50;;;17.40;51.50;;;;;;5004548;28;20497;-83
2021/04/21 15:38:23;;;;;;;8.45;3.30;;;17.10;50.60;;;;;;4986892;28;20050;-83
2021/04/21 15:40:52;;;;;;;9.93;4.25;;;17.00;51.30;;;;;;4987681;28;20104;-84
2021/04/21 15:43:18;;;;;;;10.02;3.30;;;16.80;51.00;;;;;;4986702;28;20050;-83
2021/04/21 15:45:44;;;;;;;6.32;3.28;;;16.90;51.00;;;;;;4986322;28;20591;-82
2021/04/21 15:48:11;;;;;;;7.43;3.20;;;17.20;51.90;;;;;;4986956;28;20074;-82
2021/04/21 15:50:38;;;;;;;13.27;3.28;;;17.30;51.80;;;;;;4986614;28;20081;-82
2021/04/21 15:53:05;;;;;;;12.00;3.22;;;17.10;49.80;;;;;;4985754;28;20050;-83
2021/04/21 15:55:33;;;;;;;4.90;3.10;;;17.00;50.00;;;;;;5002863;28;20050;-82
2021/04/21 15:58:00;;;;;;;8.23;3.63;;;16.90;50.90;;;;;;4987419;28;20125;-83
2021/04/21 16:00:27;;;;;;;8.30;3.13;;;16.80;54.00;;;;;;5004721;28;20085;-82
2021/04/21 16:02:59;;;;;;;8.05;3.40;;;16.90;51.50;;;;;;5002773;28;20133;-83
2021/04/21 16:05:27;;;;;;;10.45;6.35;;;17.00;50.20;;;;;;5002868;28;20532;-83
2021/04/21 16:07:54;;;;;;;9.35;4.60;;;17.10;50.40;;;;;;4984886;28;20509;-82
2021/04/21 16:10:26;;;;;;;59.38;35.88;;;17.30;51.30;;;;;;4986009;28;20105;-83
2021/04/21 16:12:54;;;;;;;8.05;5.50;;;17.10;50.50;;;;;;4985326;28;20088;-82
2021/04/21 16:15:21;;;;;;;12.52;3.75;;;16.80;51.90;;;;;;4985257;28;20133;-82
2021/04/21 16:17:48;;;;;;;9.02;5.80;;;16.80;51.70;;;;;;4985005;28;20498;-82
2021/04/21 16:20:15;;;;;;;44.95;30.95;;;16.60;51.50;;;;;;5003069;28;20050;-82
2021/04/21 16:22:43;;;;;;;4.60;3.22;;;16.50;51.30;;;;;;5001896;28;20406;-80
2021/04/21 16:25:19;;;;;;;4.15;2.97;;;16.60;51.50;;;;;;4979680;28;20084;-81
2021/04/21 16:27:49;;;;;;;4.53;2.92;;;16.70;51.60;;;;;;4997144;28;20100;-81
2021/04/21 16:30:18;;;;;;;3.60;3.30;;;16.80;51.60;;;;;;4979998;28;20125;-81
2021/04/21 16:32:44;;;;;;;9.65;3.80;;;16.60;52.10;;;;;;4996654;28;20051;-81
2021/04/21 16:35:11;;;;;;;5.00;3.08;;;16.60;52.20;;;;;;4980170;28;20077;-81
2021/04/21 16:37:38;;;;;;;5.95;3.15;;;16.60;51.60;;;;;;4997070;28;20073;-81
2021/04/21 16:40:09;;;;;;;6.90;2.78;;;16.60;51.20;;;;;;4997145;28;20081;-81
2021/04/21 16:42:36;;;;;;;8.73;2.80;;;16.60;52.60;;;;;;4979953;28;20129;-81
2021/04/21 16:45:04;;;;;;;8.52;3.13;;;16.80;51.80;;;;;;4996700;28;20047;-79
2021/04/21 16:47:30;;;;;;;8.90;2.95;;;16.70;52.30;;;;;;4997116;28;20112;-80
2021/04/21 16:49:57;;;;;;;7.13;3.38;;;16.80;51.70;;;;;;4996467;28;20046;-80
2021/04/21 16:52:23;;;;;;;4.60;2.88;;;16.80;52.10;;;;;;4979808;28;20046;-82
2021/04/21 16:54:49;;;;;;;7.50;3.67;;;16.80;51.40;;;;;;4996723;28;20078;-81
2021/04/21 16:57:16;;;;;;;7.57;4.15;;;16.70;52.30;;;;;;4979596;28;20641;-81
2021/04/21 16:59:43;;;;;;;2.90;2.60;;;16.40;52.80;;;;;;4981624;28;20042;-81
2021/04/21 17:02:12;;;;;;;4.25;3.10;;;16.40;53.10;;;;;;4982439;28;20054;-82
2021/04/21 17:04:39;;;;;;;5.00;3.38;;;16.30;52.90;;;;;;4998420;28;20051;-82
2021/04/21 17:07:06;;;;;;;4.20;3.60;;;16.10;53.30;;;;;;4980957;28;20050;-82
2021/04/21 17:09:33;;;;;;;8.32;3.28;;;15.90;54.00;;;;;;4980766;28;20077;-81
2021/04/21 17:12:00;;;;;;;10.25;3.22;;;15.80;54.50;;;;;;4998315;28;20077;-81
2021/04/21 17:14:26;;;;;;;6.63;2.90;;;15.70;56.50;;;;;;4978403;28;20137;-81
2021/04/21 17:16:53;;;;;;;18.17;3.40;;;15.70;57.00;;;;;;4978565;28;20126;-81
2021/04/21 17:19:20;;;;;;;6.85;3.42;;;15.60;58.40;;;;;;4980546;28;20445;-82
2021/04/21 17:21:48;;;;;;;6.45;2.78;;;15.50;62.30;;;;;;5000150;28;20137;-82
2021/04/21 17:24:15;;;;;;;5.90;2.55;;;15.40;63.90;;;;;;4984635;28;20058;-83
2021/04/21 17:26:42;;;;;;;11.13;2.92;;;15.30;67.00;;;;;;5006350;28;20077;-82
2021/04/21 17:29:10;;;;;;;6.72;2.88;;;15.20;70.80;;;;;;4988878;28;20046;-82
2021/04/21 17:31:39;;;;;;;6.72;2.25;;;15.30;72.70;;;;;;4983702;28;20134;-82
2021/04/21 17:34:06;;;;;;;3.67;2.33;;;15.30;72.50;;;;;;5001386;28;20042;-82
2021/04/21 17:36:33;;;;;;;8.73;3.40;;;15.30;70.60;;;;;;5001701;28;20106;-80
2021/04/21 17:39:00;;;;;;;4.65;2.53;;;15.30;71.20;;;;;;5000839;28;20097;-82
2021/04/21 17:41:26;;;;;;;8.55;3.50;;;15.20;69.90;;;;;;5000189;28;20054;-77
2021/04/21 17:44:01;;;;;;;5.75;2.85;;;15.10;73.10;;;;;;4979224;28;20133;-78
2021/04/21 17:46:27;;;;;;;5.90;5.20;;;15.00;77.50;;;;;;4979019;28;20085;-77
2021/04/21 17:48:55;;;;;;;6.18;3.63;;;14.90;79.60;;;;;;4996216;28;20104;-78
2021/04/21 17:51:23;;;;;;;9.77;3.00;;;14.60;85.10;;;;;;4978590;28;20101;-78
2021/04/21 17:54:01;;;;;;;8.98;3.50;;;14.40;84.30;;;;;;4979049;28;20130;-77
2021/04/21 17:56:27;;;;;;;8.48;3.22;;;14.30;90.60;;;;;;4978950;28;20197;-78
2021/04/21 17:58:54;;;;;;;6.30;3.08;;;14.10;91.70;;;;;;4978483;28;20081;-81
2021/04/21 18:01:24;;;;;;;7.15;3.10;;;14.00;96.60;;;;;;4983822;28;20089;-81
2021/04/21 18:03:50;;;;;;;9.48;3.03;;;13.70;99.90;;;;;;4984059;28;20129;-81
2021/04/21 18:06:17;;;;;;;11.85;3.92;;;13.50;99.90;;;;;;4982424;28;20509;-81
2021/04/21 18:08:43;;;;;;;12.27;4.55;;;13.30;99.90;;;;;;4985172;28;20050;-81
2021/04/21 18:11:10;;;;;;;9.40;3.67;;;13.00;99.90;;;;;;4983875;28;20046;-80
2021/04/21 18:13:37;;;;;;;13.90;4.22;;;12.80;99.90;;;;;;4984692;28;20542;-81
2021/04/21 18:16:04;;;;;;;10.13;3.70;;;12.60;99.90;;;;;;4983394;28;20070;-81
2021/04/21 18:18:30;;;;;;;18.17;4.22;;;12.30;99.90;;;;;;4984563;28;20088;-81
2021/04/21 18:20:57;;;;;;;6.15;4.00;;;12.20;99.90;;;;;;4981698;28;20050;-82
2021/04/21 18:23:24;;;;;;;22.75;11.57;;;12.00;99.90;;;;;;4982658;28;20081;-81
2021/04/21 18:25:50;;;;;;;7.88;3.92;;;11.80;99.90;;;;;;4999940;28;20430;-82
2021/04/21 18:28:17;;;;;;;7.95;3.95;;;11.60;99.90;;;;;;4981850;28;20050;-81
2021/04/21 18:30:43;;;;;;;7.32;3.03;;;11.50;99.90;;;;;;4979240;28;20082;-80
2021/04/21 18:33:11;;;;;;;7.40;3.20;;;11.40;99.90;;;;;;4996463;28;20042;-81
2021/04/21 18:35:41;;;;;;;9.75;3.55;;;11.30;99.90;;;;;;4980657;28;20050;-79
2021/04/21 18:38:08;;;;;;;9.77;5.32;;;11.30;99.90;;;;;;4979451;28;20137;-80
2021/04/21 18:40:37;;;;;;;9.95;3.65;;;11.20;99.90;;;;;;4998732;28;20120;-81
2021/04/21 18:43:04;;;;;;;8.63;4.45;;;11.10;99.90;;;;;;4981212;28;20054;-81
2021/04/21 18:45:30;;;;;;;10.80;5.80;;;11.10;99.90;;;;;;4978909;28;20101;-81
2021/04/21 18:47:56;;;;;;;7.00;3.90;;;11.00;99.90;;;;;;4981458;28;20050;-81
2021/04/21 18:50:23;;;;;;;9.88;4.63;;;11.00;99.90;;;;;;4989316;28;20089;-79
2021/04/21 18:52:50;;;;;;;7.35;4.68;;;10.90;99.90;;;;;;4978233;28;20081;-81
2021/04/21 18:55:20;;;;;;;5.53;4.47;;;10.80;99.90;;;;;;4979366;28;20513;-80
2021/04/21 18:57:47;;;;;;;7.57;4.65;;;10.60;99.90;;;;;;4978263;28;20124;-82
2021/04/21 19:00:17;;;;;;;6.15;3.40;;;10.60;99.90;;;;;;4994912;28;20147;-80
2021/04/21 19:02:43;;;;;;;6.80;3.78;;;10.50;99.90;;;;;;4976790;28;20130;-81
2021/04/21 19:05:11;;;;;;;4.05;3.47;;;10.30;99.90;;;;;;4976971;28;20146;-82
2021/04/21 19:07:38;;;;;;;7.35;3.45;;;10.20;99.90;;;;;;4994563;28;20101;-82
2021/04/21 19:10:07;;;;;;;6.97;3.58;;;10.10;99.90;;;;;;4978441;28;20077;-82